This is the latest recevied weather packets stored in our database for station/object HARMAJA. If no packets are shown the sender has not sent any weather packets the latest 10 day(s).
| Time | Temp. | Humidity | Pressure | Rain* | Wind** | Luminosity | Snow |
|---|---|---|---|---|---|---|---|
| 1777871230 | 7.78° C | 67% | 1005.4 hPa | - | - | - | - |
| 1777870029 | 7.22° C | 70% | 1005.5 hPa | - | - | - | - |
| 1777868830 | 7.22° C | 72% | 1005.6 hPa | - | - | - | - |
| 1777867629 | 7.22° C | 69% | 1005.7 hPa | - | - | - | - |
| 1777866429 | 7.22° C | 72% | 1005.8 hPa | - | - | - | - |
| 1777865230 | 7.78° C | 68% | 1005.9 hPa | - | - | - | - |
| 1777844828 | 6.11° C | 92% | 1007.4 hPa | - | - | - | - |
| 1777843628 | 6.11° C | 92% | 1007.3 hPa | - | - | - | - |
| 1777842428 | 6.67° C | 91% | 1007.3 hPa | - | - | - | - |
| 1777840028 | 6.11° C | 91% | 1007.5 hPa | - | - | - | - |
| 1777838828 | 6.67° C | 90% | 1007.5 hPa | - | - | - | - |
| 1777837628 | 6.67° C | 89% | 1007.6 hPa | - | - | - | - |
| 1777836428 | 6.67° C | 89% | 1007.7 hPa | - | - | - | - |
| 1777835228 | 7.22° C | 88% | 1007.6 hPa | - | - | - | - |
| 1777830428 | 6.67° C | 89% | 1007.5 hPa | - | - | - | - |
| 1777829234 | 6.67° C | 89% | 1007.5 hPa | - | - | - | - |
| 1777828027 | 6.67° C | 88% | 1007.6 hPa | - | - | - | - |
| 1777825627 | 6.67° C | 90% | 1007.8 hPa | - | - | - | - |
| 1777822027 | 7.22° C | 86% | 1007.7 hPa | - | - | - | - |
| 1777819627 | 6.67° C | 88% | 1007.9 hPa | - | - | - | - |
| 1777817227 | 6.67° C | 88% | 1007.9 hPa | - | - | - | - |
| 1777816027 | 6.67° C | 87% | 1008 hPa | - | - | - | - |
| 1777814827 | 6.67° C | 87% | 1007.9 hPa | - | - | - | - |
| 1777811226 | 8.33° C | 78% | 1008.1 hPa | - | - | - | - |
| 1777810027 | 7.78° C | 81% | 1008.1 hPa | - | - | - | - |
* Rain since midnight (hover to see other rain measurements)
** Current wind speed in m/s (hover to see current wind gust speed)